createdAt,value
2019-04-21T00:03:48.602Z,13.60
2019-04-21T00:06:51.062Z,13.50
2019-04-21T00:09:39.637Z,13.30
2019-04-21T00:12:22.781Z,13.30
2019-04-21T00:15:07.407Z,13.20
2019-04-21T00:20:38.198Z,13.10
2019-04-21T00:23:32.821Z,13.00
2019-04-21T00:26:23.873Z,13.10
2019-04-21T00:29:25.627Z,13.10
2019-04-21T00:35:04.698Z,13.10
2019-04-21T00:38:07.904Z,12.90
2019-04-21T00:41:23.589Z,12.80
2019-04-21T00:44:07.378Z,12.70
2019-04-21T00:46:58.332Z,12.60
2019-04-21T00:49:56.606Z,12.40
2019-04-21T00:53:00.916Z,12.30
2019-04-21T00:55:59.434Z,12.10
2019-04-21T00:58:53.418Z,12.10
2019-04-21T01:01:46.299Z,11.90
2019-04-21T01:04:33.821Z,11.70
2019-04-21T01:07:36.015Z,11.60
2019-04-21T01:10:22.152Z,11.50
2019-04-21T01:16:37.502Z,11.30
2019-04-21T01:19:15.728Z,11.10
2019-04-21T01:25:04.325Z,11.00
2019-04-21T01:27:53.695Z,11.00
2019-04-21T01:30:59.451Z,10.90
2019-04-21T01:34:08.326Z,10.70
2019-04-21T01:42:39.434Z,10.10
2019-04-21T01:45:44.822Z,9.90
2019-04-21T01:48:24.706Z,9.80
2019-04-21T01:51:12.904Z,9.80
2019-04-21T01:54:31.754Z,9.90
2019-04-21T02:00:22.356Z,9.70
2019-04-21T02:03:34.455Z,9.50
2019-04-21T02:06:11.088Z,9.30
2019-04-21T02:11:50.687Z,9.00
2019-04-21T02:14:41.643Z,8.90
2019-04-21T02:20:24.413Z,8.80
2019-04-21T02:26:03.532Z,8.50
2019-04-21T02:28:56.567Z,8.50
2019-04-21T02:37:38.362Z,8.40
2019-04-21T02:40:11.510Z,8.40
2019-04-21T02:43:05.399Z,8.50
2019-04-21T02:46:10.312Z,8.80
2019-04-21T02:51:27.395Z,9.30
2019-04-21T02:57:41.469Z,9.30
2019-04-21T03:03:25.069Z,9.10
2019-04-21T03:06:27.031Z,9.00
2019-04-21T03:09:16.053Z,8.90
2019-04-21T03:12:05.263Z,8.80
2019-04-21T03:21:16.440Z,8.50
2019-04-21T03:24:01.175Z,8.50
2019-04-21T03:38:27.074Z,8.40
2019-04-21T03:41:10.755Z,8.30
2019-04-21T03:44:00.521Z,8.30
2019-04-21T03:46:52.587Z,8.30
2019-04-21T04:01:15.877Z,8.30
2019-04-21T04:07:42.469Z,8.40
2019-04-21T04:10:34.740Z,8.40
2019-04-21T04:13:19.904Z,8.50
2019-04-21T04:21:41.942Z,8.60
2019-04-21T04:24:22.310Z,8.70
2019-04-21T04:33:12.856Z,8.50
2019-04-21T04:36:01.703Z,8.60
2019-04-21T04:41:32.269Z,8.30
2019-04-21T04:50:33.760Z,8.10
2019-04-21T04:56:18.210Z,8.10
2019-04-21T05:04:58.319Z,8.30
2019-04-21T05:10:29.692Z,8.40
2019-04-21T05:13:17.158Z,8.60
2019-04-21T05:16:01.594Z,8.50
2019-04-21T05:27:39.976Z,8.80
2019-04-21T05:33:57.644Z,9.00
2019-04-21T05:37:04.109Z,9.10
2019-04-21T05:43:20.219Z,9.30
2019-04-21T05:46:21.216Z,9.40
2019-04-21T05:48:57.891Z,9.50
2019-04-21T05:52:03.614Z,9.70
2019-04-21T05:54:59.054Z,9.80
2019-04-21T05:57:39.681Z,9.90
2019-04-21T06:00:39.039Z,10.00
2019-04-21T06:08:46.951Z,10.40
2019-04-21T06:14:25.580Z,10.80
2019-04-21T06:17:19.184Z,11.00
2019-04-21T06:20:01.778Z,11.10
2019-04-21T06:22:49.034Z,11.30
2019-04-21T06:25:50.000Z,11.40
2019-04-21T06:28:27.083Z,11.60
2019-04-21T06:33:48.792Z,12.00
2019-04-21T06:42:35.447Z,12.50
2019-04-21T06:48:21.954Z,12.90
2019-04-21T06:57:01.976Z,13.40
2019-04-21T06:59:50.020Z,13.60
2019-04-21T07:05:27.106Z,14.00
2019-04-21T07:14:24.346Z,14.60
2019-04-21T07:17:08.911Z,14.90
2019-04-21T07:20:06.923Z,15.10
2019-04-21T07:25:32.756Z,15.40
2019-04-21T07:31:27.733Z,15.70
2019-04-21T07:34:27.093Z,15.80
2019-04-21T07:36:55.976Z,16.00
2019-04-21T07:39:40.307Z,16.20
2019-04-21T07:42:18.091Z,16.40
2019-04-21T07:45:08.792Z,16.50
2019-04-21T07:48:19.265Z,16.70
2019-04-21T07:54:06.305Z,17.00
2019-04-21T07:56:33.208Z,17.20
2019-04-21T07:59:48.539Z,17.40
2019-04-21T08:02:23.829Z,17.50
2019-04-21T08:05:16.055Z,17.60
2019-04-21T08:07:55.914Z,17.80
2019-04-21T08:10:47.073Z,18.00
2019-04-21T08:13:48.810Z,18.10
2019-04-21T08:16:30.426Z,18.30
2019-04-21T08:25:54.893Z,19.00
2019-04-21T08:28:39.203Z,19.00
2019-04-21T08:31:25.768Z,19.10
2019-04-21T08:34:22.618Z,19.20
2019-04-21T08:36:56.733Z,19.30
2019-04-21T08:39:59.397Z,19.40
2019-04-21T08:42:36.795Z,19.50
2019-04-21T08:45:21.992Z,19.50
2019-04-21T08:48:05.848Z,19.70
2019-04-21T08:50:55.040Z,19.80
2019-04-21T08:53:42.759Z,20.00
2019-04-21T08:56:43.517Z,20.20
2019-04-21T09:03:02.489Z,20.40
2019-04-21T09:05:45.130Z,20.60
2019-04-21T09:08:39.610Z,20.80
2019-04-21T09:11:28.886Z,21.00
2019-04-21T09:14:13.683Z,21.30
2019-04-21T09:16:56.265Z,21.50
2019-04-21T09:22:30.691Z,22.00
2019-04-21T09:25:19.673Z,22.20
2019-04-21T09:28:07.025Z,22.20
2019-04-21T09:30:46.727Z,22.30
2019-04-21T09:33:33.440Z,22.70
2019-04-21T09:36:20.102Z,23.60
2019-04-21T09:42:06.610Z,26.30
2019-04-21T09:44:59.457Z,26.90
2019-04-21T09:50:57.535Z,26.50
2019-04-21T09:53:43.302Z,27.10
2019-04-21T09:56:34.375Z,27.80
2019-04-21T09:59:18.046Z,28.10
2019-04-21T10:02:06.389Z,28.30
2019-04-21T10:07:44.177Z,28.30
2019-04-21T10:10:34.909Z,28.50
2019-04-21T10:13:18.351Z,28.70
2019-04-21T10:16:19.651Z,28.70
2019-04-21T10:19:06.914Z,28.90
2019-04-21T10:21:50.158Z,28.90
2019-04-21T10:24:34.048Z,28.80
2019-04-21T10:27:17.201Z,28.70
2019-04-21T10:30:00.033Z,28.50
2019-04-21T10:32:46.155Z,28.70
2019-04-21T10:38:42.627Z,29.30
2019-04-21T10:41:25.555Z,29.40
2019-04-21T10:44:09.369Z,29.60
2019-04-21T10:46:54.104Z,29.90
2019-04-21T10:49:40.784Z,29.70
2019-04-21T10:52:32.445Z,29.60
2019-04-21T10:58:11.051Z,29.60
2019-04-21T11:01:00.035Z,29.70
2019-04-21T11:06:39.095Z,30.10
2019-04-21T11:09:28.369Z,30.30
2019-04-21T11:12:31.711Z,29.80
2019-04-21T11:21:29.082Z,30.90
2019-04-21T11:24:24.941Z,30.60
2019-04-21T11:27:15.163Z,30.70
2019-04-21T11:29:59.836Z,30.60
2019-04-21T11:32:44.958Z,30.30
2019-04-21T11:35:27.685Z,30.30
2019-04-21T11:38:19.027Z,30.30
2019-04-21T11:41:05.546Z,30.70
2019-04-21T11:43:48.863Z,30.80
2019-04-21T11:46:20.583Z,30.90
2019-04-21T11:49:06.230Z,31.30
2019-04-21T11:52:09.077Z,31.70
2019-04-21T11:54:44.694Z,31.60
2019-04-21T11:57:34.963Z,31.30
2019-04-21T12:00:15.589Z,31.80
2019-04-21T12:02:59.582Z,32.00
2019-04-21T12:05:43.504Z,32.00
2019-04-21T12:08:36.471Z,32.40
2019-04-21T12:11:13.779Z,33.10
2019-04-21T12:13:56.566Z,33.60
2019-04-21T12:16:41.094Z,33.60
2019-04-21T12:19:27.153Z,33.30
2019-04-21T12:22:21.031Z,32.90
2019-04-21T12:24:57.410Z,32.80
2019-04-21T12:27:41.686Z,32.90
2019-04-21T12:30:27.272Z,32.70
2019-04-21T12:33:36.226Z,33.10
2019-04-21T12:36:31.751Z,33.10
2019-04-21T12:39:30.537Z,33.50
2019-04-21T12:42:22.781Z,34.00
2019-04-21T12:45:05.755Z,33.80
2019-04-21T12:47:50.691Z,34.40
2019-04-21T12:50:34.089Z,35.10
2019-04-21T12:53:17.881Z,34.70
2019-04-21T12:56:02.158Z,34.50
2019-04-21T12:58:51.237Z,34.20
2019-04-21T13:04:43.921Z,34.70
2019-04-21T13:07:33.203Z,35.00
2019-04-21T13:13:35.695Z,35.30
2019-04-21T13:16:35.397Z,35.30
2019-04-21T13:22:21.711Z,35.10
2019-04-21T13:28:28.336Z,35.00
2019-04-21T13:31:12.529Z,35.30
2019-04-21T13:34:04.068Z,35.60
2019-04-21T13:40:25.219Z,35.40
2019-04-21T13:43:10.708Z,35.70
2019-04-21T13:45:53.973Z,36.10
2019-04-21T13:48:36.856Z,36.30
2019-04-21T13:51:20.054Z,36.20
2019-04-21T13:54:02.381Z,36.00
2019-04-21T13:56:45.015Z,36.10
2019-04-21T13:59:29.183Z,35.80
2019-04-21T14:02:11.303Z,35.60
2019-04-21T14:04:53.974Z,35.50
2019-04-21T14:07:36.428Z,36.00
2019-04-21T14:10:19.982Z,36.20
2019-04-21T14:13:06.863Z,36.20
2019-04-21T14:15:53.862Z,36.20
2019-04-21T14:18:38.475Z,36.40
2019-04-21T14:21:23.228Z,36.20
2019-04-21T14:24:09.053Z,36.00
2019-04-21T14:26:52.199Z,36.20
2019-04-21T14:29:35.475Z,36.50
2019-04-21T14:32:18.241Z,36.40
2019-04-21T14:35:09.092Z,36.30
2019-04-21T14:38:18.522Z,36.60
2019-04-21T14:41:03.980Z,36.50
2019-04-21T14:43:55.152Z,36.20
2019-04-21T14:56:11.460Z,36.80
2019-04-21T14:58:57.296Z,36.60
2019-04-21T15:01:40.055Z,35.80
2019-04-21T15:04:24.043Z,35.30
2019-04-21T15:10:04.687Z,36.30
2019-04-21T15:12:43.546Z,36.80
2019-04-21T15:15:25.696Z,36.90
2019-04-21T15:18:11.048Z,37.00
2019-04-21T15:20:55.175Z,37.10
2019-04-21T15:23:38.224Z,37.10
2019-04-21T15:29:17.106Z,37.30
2019-04-21T15:32:00.890Z,37.10
2019-04-21T15:37:37.835Z,36.70
2019-04-21T15:40:39.460Z,36.70
2019-04-21T15:43:10.751Z,36.90
2019-04-21T15:45:54.853Z,37.20
2019-04-21T15:51:22.031Z,37.10
2019-04-21T15:54:04.888Z,36.90
2019-04-21T16:02:48.770Z,36.80
2019-04-21T16:05:31.037Z,36.90
2019-04-21T16:11:13.640Z,36.60
2019-04-21T16:13:57.451Z,36.40
2019-04-21T16:16:43.267Z,36.70
2019-04-21T16:19:29.360Z,36.60
2019-04-21T16:22:12.825Z,36.30
2019-04-21T16:24:55.456Z,36.10
2019-04-21T16:30:28.586Z,35.60
2019-04-21T16:33:16.317Z,35.60
2019-04-21T16:36:01.972Z,35.60
2019-04-21T16:38:44.487Z,35.80
2019-04-21T16:41:26.857Z,35.70
2019-04-21T16:44:11.587Z,35.20
2019-04-21T16:46:55.656Z,35.00
2019-04-21T16:49:45.533Z,34.90
2019-04-21T16:58:28.299Z,34.30
2019-04-21T17:01:14.909Z,34.10
2019-04-21T17:22:39.575Z,29.00
2019-04-21T17:28:25.737Z,27.50
2019-04-21T17:31:10.858Z,27.00
2019-04-21T17:34:03.708Z,26.60
2019-04-21T17:36:45.382Z,26.20
2019-04-21T17:39:31.832Z,25.80
2019-04-21T17:42:13.971Z,25.60
2019-04-21T17:45:03.609Z,25.30
2019-04-21T17:48:15.917Z,25.00
2019-04-21T17:51:15.056Z,24.80
2019-04-21T17:54:33.804Z,24.60
2019-04-21T18:00:57.683Z,24.20
2019-04-21T18:03:07.672Z,24.00
2019-04-21T18:05:50.571Z,23.80
2019-04-21T18:08:40.175Z,23.60
2019-04-21T18:11:18.120Z,23.40
2019-04-21T18:13:55.572Z,23.20
2019-04-21T18:16:42.761Z,23.10
2019-04-21T18:28:02.898Z,22.20
2019-04-21T18:30:46.791Z,22.10
2019-04-21T18:33:38.900Z,21.90
2019-04-21T18:40:06.893Z,21.50
2019-04-21T18:46:22.882Z,20.90
2019-04-21T18:49:09.210Z,20.70
2019-04-21T18:52:16.884Z,20.50
2019-04-21T18:57:58.984Z,20.10
2019-04-21T19:13:20.498Z,19.10
2019-04-21T19:15:48.396Z,18.90
2019-04-21T19:21:20.450Z,18.70
2019-04-21T19:30:50.163Z,18.40
2019-04-21T19:33:31.709Z,18.30
2019-04-21T19:39:52.771Z,18.10
2019-04-21T19:49:40.044Z,17.70
2019-04-21T19:55:09.794Z,17.20
2019-04-21T19:57:56.760Z,17.00
2019-04-21T20:00:40.523Z,17.00
2019-04-21T20:03:28.514Z,17.00
2019-04-21T20:13:07.395Z,16.60
2019-04-21T20:15:50.918Z,16.40
2019-04-21T20:18:26.246Z,16.50
2019-04-21T20:21:03.911Z,16.50
2019-04-21T20:23:56.481Z,16.30
2019-04-21T20:27:09.226Z,16.20
2019-04-21T20:30:25.961Z,16.00
2019-04-21T20:36:15.000Z,15.70
2019-04-21T20:38:53.530Z,15.60
2019-04-21T20:41:44.248Z,15.50
2019-04-21T20:44:45.887Z,15.30
2019-04-21T20:53:00.010Z,15.10
2019-04-21T20:55:37.963Z,15.00
2019-04-21T20:58:28.493Z,14.90
2019-04-21T21:04:29.598Z,14.80
2019-04-21T21:16:53.456Z,14.30
2019-04-21T21:19:39.744Z,14.10
2019-04-21T21:22:41.476Z,13.90
2019-04-21T21:25:44.708Z,13.80
2019-04-21T21:45:45.119Z,12.90
2019-04-21T21:52:04.471Z,12.80
2019-04-21T21:54:40.113Z,12.60
2019-04-21T21:57:28.425Z,12.60
2019-04-21T22:00:19.247Z,12.50
2019-04-21T22:03:14.748Z,12.40
2019-04-21T22:06:01.949Z,12.30
2019-04-21T22:08:50.302Z,12.20
2019-04-21T22:19:04.484Z,12.00
2019-04-21T22:28:33.761Z,11.70
2019-04-21T22:34:35.956Z,11.50
2019-04-21T22:37:35.270Z,11.40
2019-04-21T22:40:16.686Z,11.30
2019-04-21T23:14:17.134Z,10.60
2019-04-21T23:17:29.803Z,10.50
2019-04-21T23:20:10.234Z,10.40
2019-04-21T23:23:13.107Z,10.40
2019-04-21T23:28:51.294Z,10.20
2019-04-21T23:31:39.875Z,10.20
2019-04-21T23:34:10.854Z,10.10
2019-04-21T23:37:08.895Z,10.10
2019-04-21T23:40:15.887Z,10.00
2019-04-21T23:42:45.285Z,9.90
2019-04-21T23:45:34.022Z,10.00
2019-04-21T23:48:38.978Z,10.00
2019-04-21T23:51:31.432Z,9.90
2019-04-21T23:57:11.064Z,9.60
2019-04-21T23:59:53.379Z,9.50
